Time;durP1;ratioP1;P1;durP2;ratioP2;P2;SDS_P1;SDS_P2;PMS_P1;PMS_P2;Temp;Humidity;BMP_temperature;BMP_pressure;BME280_temperature;BME280_humidity;BME280_pressure;Samples;Min_cycle;Max_cycle;Signal;HPM_P1;HPM_P2
2022/08/29 00:01:38;;;;;;;13.10;2.90;;;;;;;16.55;77.70;99192.80;105818;1277;22557;-81
2022/08/29 00:04:13;;;;;;;10.40;3.90;;;;;;;16.57;77.55;99194.00;105719;1277;22814;-86
2022/08/29 00:06:40;;;;;;;11.50;3.40;;;;;;;16.56;77.45;99192.55;105648;1277;22574;-81
2022/08/29 00:09:10;;;;;;;10.10;3.00;;;;;;;16.56;77.53;99193.63;105567;1277;22786;-80
2022/08/29 00:11:37;;;;;;;12.00;3.10;;;;;;;16.58;77.56;99189.96;105610;1276;25236;-87
2022/08/29 00:14:05;;;;;;;13.60;3.20;;;;;;;16.58;77.50;99193.17;105576;1278;25225;-80
2022/08/29 00:16:32;;;;;;;11.00;3.30;;;;;;;16.58;77.45;99194.66;105800;1277;22537;-85
2022/08/29 00:19:02;;;;;;;9.20;3.10;;;;;;;16.59;77.59;99195.61;105923;1277;22544;-85
2022/08/29 00:21:34;;;;;;;9.80;3.40;;;;;;;16.59;77.50;99195.67;105643;1277;22543;-86
2022/08/29 00:24:01;;;;;;;13.30;3.50;;;;;;;16.56;77.42;99198.10;104630;1278;1509769;-81
2022/08/29 00:26:28;;;;;;;9.30;3.50;;;;;;;16.52;77.31;99202.77;105688;1277;25269;-81
2022/08/29 00:29:01;;;;;;;13.00;3.00;;;;;;;16.46;77.27;99202.38;105715;1277;25308;-84
2022/08/29 00:31:31;;;;;;;10.30;2.80;;;;;;;16.45;77.35;99202.38;105673;1280;22710;-86
2022/08/29 00:33:58;;;;;;;14.20;3.20;;;;;;;16.43;77.29;99203.95;105781;1278;25668;-86
2022/08/29 00:36:25;;;;;;;9.70;2.70;;;;;;;16.40;77.39;99205.87;105698;1278;22682;-83
2022/08/29 00:38:53;;;;;;;12.60;3.00;;;;;;;16.36;77.22;99211.10;105647;1277;23922;-81
2022/08/29 00:41:20;;;;;;;11.10;3.30;;;;;;;16.32;77.37;99211.70;105713;1277;22551;-83
2022/08/29 00:43:52;;;;;;;14.50;3.50;;;;;;;16.28;77.40;99210.95;105707;1277;24194;-85
2022/08/29 00:46:46;;;;;;;13.00;3.30;;;;;;;16.24;77.47;99212.27;105763;1277;22559;-83
2022/08/29 00:49:45;;;;;;;15.90;3.20;;;;;;;16.20;77.41;99210.64;105857;1276;22919;-80
2022/08/29 00:52:29;;;;;;;10.10;2.90;;;;;;;16.19;77.45;99213.20;105809;1277;22506;-84
2022/08/29 00:54:58;;;;;;;11.30;3.20;;;;;;;16.17;77.42;99213.39;105714;1280;23309;-87
2022/08/29 00:57:30;;;;;;;12.50;3.10;;;;;;;16.17;77.56;99210.17;105784;1278;25226;-81
2022/08/29 00:59:58;;;;;;;11.50;3.00;;;;;;;16.17;77.44;99209.78;105678;1280;26475;-84
2022/08/29 01:02:27;;;;;;;12.20;3.10;;;;;;;16.16;77.43;99208.11;105825;1277;23231;-80
2022/08/29 01:04:54;;;;;;;10.30;3.10;;;;;;;16.11;77.43;99201.39;105770;1278;22579;-80
2022/08/29 01:07:23;;;;;;;10.80;2.80;;;;;;;16.08;77.44;99199.67;105753;1278;24406;-82
2022/08/29 01:09:53;;;;;;;11.50;2.90;;;;;;;16.05;77.36;99197.84;105689;1278;24211;-83
2022/08/29 01:12:22;;;;;;;14.00;3.10;;;;;;;16.01;77.44;99198.00;105750;1276;24562;-81
2022/08/29 01:14:58;;;;;;;10.50;2.60;;;;;;;16.01;77.51;99198.56;105724;1278;22571;-86
2022/08/29 01:17:41;;;;;;;13.50;3.20;;;;;;;16.01;77.59;99199.98;105821;1277;26760;-83
2022/08/29 01:20:31;;;;;;;10.00;2.50;;;;;;;16.00;77.49;99201.15;105676;1278;24278;-86
2022/08/29 01:23:17;;;;;;;9.10;2.80;;;;;;;15.97;77.34;99199.65;105732;1277;24341;-85
2022/08/29 01:25:50;;;;;;;9.30;2.70;;;;;;;15.93;77.52;99199.98;105764;1279;26548;-80
2022/08/29 01:28:39;;;;;;;10.20;2.70;;;;;;;15.93;77.52;99198.04;105858;1279;22602;-86
2022/08/29 01:31:19;;;;;;;15.30;2.80;;;;;;;15.89;77.44;99195.10;105775;1278;24224;-85
2022/08/29 01:33:55;;;;;;;13.10;3.10;;;;;;;15.89;77.41;99193.91;105757;1277;22561;-83
2022/08/29 05:13:52;;;;;;;10.70;2.50;;;;;;;15.63;77.79;99274.88;105772;1277;22566;-80
2022/08/29 05:16:44;;;;;;;9.70;2.70;;;;;;;15.78;77.73;99279.45;105872;1278;24219;-79
2022/08/29 05:19:14;;;;;;;12.80;3.60;;;;;;;15.87;77.64;99275.05;105657;1280;22545;-79
2022/08/29 05:22:01;;;;;;;12.40;3.00;;;;;;;15.92;77.45;99277.14;105636;1280;24221;-84
2022/08/29 05:24:35;;;;;;;14.00;3.00;;;;;;;15.96;77.52;99274.21;105708;1279;25593;-80
2022/08/29 05:27:08;;;;;;;10.10;2.80;;;;;;;16.05;77.47;99278.11;105781;1280;25247;-80
2022/08/29 05:29:42;;;;;;;10.00;2.90;;;;;;;16.12;77.20;99277.10;105873;1277;25340;-80
2022/08/29 05:32:13;;;;;;;12.60;3.20;;;;;;;16.17;77.22;99278.77;105771;1279;22560;-80
2022/08/29 05:34:42;;;;;;;13.60;3.50;;;;;;;16.25;77.16;99280.60;105813;1279;24907;-86
2022/08/29 05:37:14;;;;;;;14.10;3.30;;;;;;;16.32;77.27;99283.51;105835;1279;22633;-82
2022/08/29 05:39:46;;;;;;;10.30;2.70;;;;;;;16.41;77.19;99286.98;105833;1280;25348;-81
2022/08/29 05:42:18;;;;;;;8.70;2.20;;;;;;;16.54;77.15;99285.65;105677;1280;23145;-79
2022/08/29 05:44:48;;;;;;;11.60;3.00;;;;;;;16.61;76.80;99288.71;105788;1279;25707;-83
2022/08/29 05:47:17;;;;;;;10.10;3.00;;;;;;;16.67;76.75;99288.73;105688;1278;22631;-80
2022/08/29 05:49:46;;;;;;;11.40;2.80;;;;;;;16.73;76.61;99293.38;105796;1279;24293;-82
2022/08/29 05:52:19;;;;;;;15.00;3.10;;;;;;;16.77;76.70;99291.79;105619;1280;22570;-81
2022/08/29 05:54:46;;;;;;;14.70;3.10;;;;;;;16.88;76.69;99291.29;105770;1279;22544;-80
2022/08/29 05:57:27;;;;;;;;;;;;;;;;;;;;;
2022/08/29 06:00:06;;;;;;;12.30;3.30;;;;;;;17.16;77.07;99292.70;105852;1278;24313;-81
2022/08/29 06:02:39;;;;;;;10.70;2.90;;;;;;;17.36;76.83;99292.56;105759;1280;24209;-86
2022/08/29 06:05:09;;;;;;;14.20;3.10;;;;;;;17.47;76.54;99293.52;105806;1279;22584;-79
2022/08/29 06:07:40;;;;;;;12.70;2.90;;;;;;;17.55;76.33;99294.32;105635;1280;25208;-80
2022/08/29 06:10:31;;;;;;;13.90;3.20;;;;;;;17.59;76.13;99297.42;105219;1279;22539;-84
2022/08/29 06:13:18;;;;;;;16.30;2.90;;;;;;;17.63;76.08;99295.44;105600;1279;22543;-84
2022/08/29 06:16:03;;;;;;;;;;;;;;;;;;;;;
2022/08/29 06:18:33;;;;;;;12.80;2.80;;;;;;;17.85;76.25;99296.83;105727;1279;25375;-81
2022/08/29 06:21:06;;;;;;;12.40;2.70;;;;;;;17.95;76.16;99298.67;105753;1280;24195;-84
2022/08/29 06:23:34;;;;;;;8.90;2.70;;;;;;;18.04;76.16;99306.08;105927;1280;23461;-86
2022/08/29 06:26:06;;;;;;;14.20;2.90;;;;;;;18.15;76.26;99309.02;105804;1279;24274;-82
2022/08/29 06:28:37;;;;;;;10.70;2.70;;;;;;;18.26;76.34;99311.71;105805;1279;24267;-86
2022/08/29 06:31:06;;;;;;;10.90;2.70;;;;;;;18.37;76.10;99314.50;105687;1277;22536;-82
2022/08/29 06:33:34;;;;;;;10.50;2.80;;;;;;;18.47;75.91;99319.99;105739;1280;23059;-83
2022/08/29 06:36:05;;;;;;;12.30;2.50;;;;;;;18.58;75.89;99321.25;105658;1278;24393;-86
2022/08/29 06:38:36;;;;;;;10.50;2.40;;;;;;;18.67;75.25;99324.57;105637;1280;25303;-81
2022/08/29 06:41:12;;;;;;;9.00;2.70;;;;;;;18.60;74.79;99327.75;105665;1280;22554;-87
2022/08/29 06:43:43;;;;;;;9.60;2.70;;;;;;;18.54;74.95;99331.15;105654;1280;22541;-81
2022/08/29 06:46:21;;;;;;;11.60;2.90;;;;;;;18.58;75.03;99330.27;105894;1277;22586;-87
2022/08/29 06:48:49;;;;;;;8.90;1.90;;;;;;;18.56;74.76;99336.88;105685;1280;24376;-79
2022/08/29 06:51:16;;;;;;;10.00;2.80;;;;;;;18.58;74.70;99337.65;105830;1280;22551;-81
2022/08/29 06:53:44;;;;;;;9.00;2.40;;;;;;;18.69;75.14;99338.21;105707;1280;22772;-85
2022/08/29 06:56:13;;;;;;;11.80;3.30;;;;;;;18.85;74.99;99338.91;105732;1281;25535;-81
2022/08/29 06:58:42;;;;;;;8.80;2.40;;;;;;;18.90;74.30;99337.88;105518;1278;22575;-86
2022/08/29 07:01:14;;;;;;;12.10;2.50;;;;;;;18.84;73.98;99341.36;105664;1277;25250;-81
2022/08/29 07:03:41;;;;;;;10.60;2.30;;;;;;;18.73;73.93;99341.03;105892;1277;25745;-80
2022/08/29 07:06:09;;;;;;;9.60;2.60;;;;;;;18.66;73.69;99343.75;105675;1280;24293;-81
2022/08/29 07:08:37;;;;;;;11.50;2.50;;;;;;;18.63;73.80;99344.66;105699;1277;25563;-86
2022/08/29 07:11:04;;;;;;;8.50;2.50;;;;;;;18.61;73.70;99347.39;105832;1280;24276;-81
2022/08/29 07:13:33;;;;;;;10.40;2.10;;;;;;;18.49;73.46;99347.56;105829;1277;25201;-84
2022/08/29 07:16:06;;;;;;;10.80;2.40;;;;;;;18.40;73.25;99350.28;105637;1279;25608;-82
2022/08/29 07:18:33;;;;;;;11.80;2.30;;;;;;;18.37;73.59;99347.70;105429;1277;22553;-81
2022/08/29 07:21:05;;;;;;;8.90;2.10;;;;;;;18.39;73.99;99350.06;105616;1279;22583;-85
2022/08/29 07:23:33;;;;;;;9.60;2.20;;;;;;;18.49;73.88;99350.78;105805;1278;24462;-81
2022/08/29 07:26:12;;;;;;;8.80;2.30;;;;;;;18.63;73.94;99350.14;105744;1280;22559;-81
2022/08/29 07:28:43;;;;;;;10.30;2.00;;;;;;;18.59;73.55;99353.41;105611;1277;24466;-86
2022/08/29 07:31:10;;;;;;;10.30;2.10;;;;;;;18.43;72.95;99358.28;105857;1277;24244;-85
2022/08/29 07:33:37;;;;;;;11.10;2.40;;;;;;;18.22;73.11;99359.79;105716;1277;24246;-83
2022/08/29 07:36:05;;;;;;;9.30;2.20;;;;;;;18.08;73.03;99363.40;105681;1277;25568;-82
2022/08/29 07:38:35;;;;;;;9.20;2.20;;;;;;;17.97;73.25;99363.58;105585;1279;25204;-83
2022/08/29 07:41:08;;;;;;;8.80;2.10;;;;;;;18.06;73.74;99361.02;105487;1281;24280;-80
2022/08/29 07:43:38;;;;;;;9.60;2.40;;;;;;;18.38;73.74;99361.50;105720;1277;24224;-82
2022/08/29 07:46:09;;;;;;;12.40;2.30;;;;;;;18.65;73.16;99361.86;105548;1279;22640;-81
2022/08/29 07:48:38;;;;;;;10.90;2.20;;;;;;;18.84;72.76;99359.08;105968;1279;24223;-82
2022/08/29 07:51:11;;;;;;;22.50;2.60;;;;;;;19.05;73.19;99366.60;105835;1277;24262;-81
2022/08/29 07:53:39;;;;;;;10.80;2.30;;;;;;;19.26;72.59;99365.34;105639;1277;25501;-79
2022/08/29 07:56:08;;;;;;;9.40;2.50;;;;;;;19.45;72.83;99366.25;105633;1281;24212;-80
2022/08/29 07:58:35;;;;;;;9.80;2.80;;;;;;;19.71;72.37;99363.92;105998;1278;22992;-82
2022/08/29 08:01:03;;;;;;;11.50;2.50;;;;;;;19.82;72.28;99362.83;105789;1280;25342;-82
2022/08/29 08:03:34;;;;;;;9.70;2.50;;;;;;;19.95;72.18;99363.59;105823;1278;25514;-85
2022/08/29 08:06:20;;;;;;;11.10;2.30;;;;;;;20.04;72.00;99365.19;105899;1278;24328;-84
2022/08/29 08:08:55;;;;;;;11.60;2.80;;;;;;;20.13;71.91;99360.17;105675;1277;24247;-82
2022/08/29 08:11:25;;;;;;;9.00;2.20;;;;;;;20.22;71.68;99356.27;105977;1278;23906;-86
2022/08/29 08:13:54;;;;;;;12.30;3.00;;;;;;;20.32;71.73;99362.34;105986;1277;22555;-85
2022/08/29 08:16:24;;;;;;;9.60;2.40;;;;;;;20.35;71.19;99364.58;105919;1277;22706;-81
2022/08/29 08:18:53;;;;;;;11.50;2.20;;;;;;;20.36;71.18;99372.05;105884;1276;25540;-85
2022/08/29 08:21:27;;;;;;;11.50;2.70;;;;;;;20.38;70.88;99370.77;105843;1278;25392;-82
2022/08/29 08:23:57;;;;;;;8.80;2.30;;;;;;;20.49;71.46;99369.02;105756;1277;24336;-84
2022/08/29 08:26:27;;;;;;;11.30;2.50;;;;;;;20.64;70.78;99369.92;105710;1277;24282;-81
2022/08/29 08:29:00;;;;;;;10.80;2.30;;;;;;;20.61;70.50;99368.80;105675;1279;24314;-84
2022/08/29 08:31:30;;;;;;;8.40;2.40;;;;;;;20.68;70.77;99367.66;105843;1278;25473;-84
2022/08/29 08:33:57;;;;;;;14.90;2.70;;;;;;;20.81;71.10;99368.59;105528;1277;25475;-82
2022/08/29 08:36:28;;;;;;;9.00;2.20;;;;;;;21.00;70.95;99372.48;105642;1280;23954;-82
2022/08/29 08:38:58;;;;;;;13.90;2.20;;;;;;;21.05;70.03;99376.20;105643;1280;22601;-82
2022/08/29 08:42:03;;;;;;;8.90;2.20;;;;;;;21.00;69.70;99375.02;105648;1280;24726;-83
2022/08/29 08:45:00;;;;;;;9.50;2.50;;;;;;;20.99;70.19;99371.08;105813;1278;22635;-81
2022/08/29 08:47:46;;;;;;;10.40;2.60;;;;;;;21.12;69.76;99372.77;105652;1280;24400;-83
2022/08/29 08:50:39;;;;;;;10.00;2.30;;;;;;;21.13;69.81;99367.38;105729;1279;22712;-85
2022/08/29 08:53:09;;;;;;;10.30;2.20;;;;;;;21.13;68.90;99366.96;105833;1281;22560;-80
2022/08/29 08:55:43;;;;;;;8.30;2.20;;;;;;;21.09;69.64;99367.86;105973;1279;26459;-81
2022/08/29 08:58:34;;;;;;;9.90;2.40;;;;;;;21.23;69.80;99367.89;105950;1277;25479;-82
2022/08/29 09:01:13;;;;;;;11.40;2.50;;;;;;;21.43;69.26;99368.73;105874;1278;24216;-83
2022/08/29 09:03:55;;;;;;;10.10;2.20;;;;;;;21.55;69.65;99368.89;106082;1278;23944;-81
2022/08/29 09:06:40;;;;;;;8.20;2.40;;;;;;;21.69;68.80;99366.58;106082;1277;25298;-80
2022/08/29 09:09:50;;;;;;;11.00;2.90;;;;;;;21.58;68.98;99368.47;106068;1278;22541;-82
2022/08/29 09:12:40;;;;;;;9.50;2.50;;;;;;;21.70;68.25;99367.16;105963;1280;23333;-79
2022/08/29 09:15:15;;;;;;;8.90;2.80;;;;;;;21.60;68.16;99367.59;105794;1278;22576;-80
2022/08/29 09:17:56;;;;;;;9.20;2.70;;;;;;;21.58;68.53;99364.73;105730;1280;25307;-83
2022/08/29 09:20:35;;;;;;;8.40;2.20;;;;;;;21.68;68.55;99367.16;105856;1282;22710;-85
2022/08/29 09:23:27;;;;;;;8.70;2.30;;;;;;;21.81;68.58;99363.17;105873;1280;22553;-84
2022/08/29 09:25:57;;;;;;;10.70;2.20;;;;;;;21.95;68.48;99363.66;105928;1279;22560;-82
2022/08/29 09:28:30;;;;;;;8.70;2.30;;;;;;;22.09;68.57;99366.14;105841;1280;25427;-83
2022/08/29 09:31:29;;;;;;;9.00;2.50;;;;;;;22.19;68.17;99363.48;105868;1280;23196;-82
2022/08/29 09:34:08;;;;;;;8.20;2.30;;;;;;;22.24;67.80;99362.88;105876;1280;26473;-82
2022/08/29 09:36:38;;;;;;;9.30;2.30;;;;;;;22.13;67.63;99369.59;105967;1278;22552;-81
2022/08/29 09:39:14;;;;;;;8.00;1.80;;;;;;;21.98;67.62;99369.61;105907;1280;22542;-82
2022/08/29 09:42:32;;;;;;;9.70;2.60;;;;;;;21.99;67.26;99371.63;105858;1280;22589;-83
2022/08/29 09:45:23;;;;;;;9.30;2.40;;;;;;;22.09;68.13;99370.27;105586;1284;22663;-84
2022/08/29 09:48:30;;;;;;;8.50;2.30;;;;;;;22.35;67.78;99367.08;105194;1286;24246;-83
2022/08/29 09:51:21;;;;;;;9.40;2.40;;;;;;;22.52;67.31;99367.63;105398;1285;24317;-85
2022/08/29 09:54:11;;;;;;;10.00;2.10;;;;;;;22.55;66.27;99367.27;105280;1285;25509;-83
2022/08/29 09:56:48;;;;;;;9.40;2.40;;;;;;;22.49;66.55;99370.91;105262;1287;22565;-83
2022/08/29 09:59:33;;;;;;;7.90;2.20;;;;;;;22.62;66.98;99371.05;105121;1287;22547;-83
2022/08/29 10:02:18;;;;;;;7.70;2.20;;;;;;;22.65;65.89;99372.61;105092;1287;22707;-82
2022/08/29 10:05:08;;;;;;;9.70;2.30;;;;;;;22.59;65.59;99372.75;105080;1287;22700;-81
2022/08/29 10:07:53;;;;;;;8.90;2.30;;;;;;;22.51;65.82;99367.73;104741;1287;25244;-80
2022/08/29 10:10:31;;;;;;;7.10;2.20;;;;;;;22.55;65.67;99374.17;105318;1285;22578;-82
2022/08/29 10:13:25;;;;;;;11.70;2.40;;;;;;;22.59;65.32;99368.61;105421;1285;25309;-83
2022/08/29 10:16:39;;;;;;;;;;;;;;;;;;;;;
2022/08/29 10:19:38;;;;;;;;;;;;;;;;;;;;;
2022/08/29 10:22:47;;;;;;;10.30;2.10;;;;;;;22.76;65.13;99373.18;105492;1281;24537;-81
2022/08/29 10:25:40;;;;;;;8.80;2.40;;;;;;;22.72;64.68;99372.86;105877;1281;22557;-84
2022/08/29 10:28:22;;;;;;;9.40;2.20;;;;;;;22.57;64.35;99371.95;105793;1278;24288;-86
2022/08/29 10:31:21;;;;;;;8.90;2.30;;;;;;;22.48;64.74;99374.12;105944;1278;22876;-85
2022/08/29 10:34:05;;;;;;;8.80;2.40;;;;;;;22.66;64.95;99372.79;105972;1278;23413;-82
2022/08/29 10:36:36;;;;;;;7.90;2.60;;;;;;;22.85;64.54;99368.88;106046;1277;25350;-86
2022/08/29 10:39:15;;;;;;;8.90;2.00;;;;;;;22.91;63.90;99371.24;106049;1278;25352;-81
2022/08/29 10:41:58;;;;;;;8.90;2.70;;;;;;;22.80;63.83;99368.29;105864;1281;23068;-84
2022/08/29 10:45:04;;;;;;;7.70;2.10;;;;;;;22.74;63.79;99369.30;105828;1277;25302;-81
2022/08/29 10:47:43;;;;;;;8.00;2.30;;;;;;;22.72;63.19;99367.33;105799;1281;25448;-83
2022/08/29 10:50:13;;;;;;;9.80;2.10;;;;;;;22.58;63.14;99366.44;105983;1277;26508;-84
2022/08/29 10:52:52;;;;;;;8.30;2.10;;;;;;;22.59;63.61;99367.17;105932;1278;27662;-82
2022/08/29 10:55:26;;;;;;;8.40;2.20;;;;;;;22.64;63.00;99371.51;105849;1281;22562;-85
2022/08/29 10:58:16;;;;;;;9.10;2.30;;;;;;;22.45;62.80;99368.15;105728;1281;22639;-82
2022/08/29 11:00:52;;;;;;;6.40;2.20;;;;;;;22.46;63.37;99365.53;105805;1278;22736;-85
2022/08/29 11:03:30;;;;;;;7.30;2.20;;;;;;;22.52;62.93;99362.77;105634;1278;22547;-83
2022/08/29 11:06:05;;;;;;;8.20;1.70;;;;;;;22.57;62.74;99363.98;105790;1282;22654;-84
2022/08/29 11:08:49;;;;;;;6.30;2.00;;;;;;;22.53;62.17;99365.92;105723;1277;22562;-85
2022/08/29 11:11:18;;;;;;;10.20;2.30;;;;;;;22.48;62.79;99362.52;105924;1278;22604;-81
2022/08/29 11:13:51;;;;;;;8.30;2.30;;;;;;;22.57;62.31;99367.63;106029;1276;24264;-81
2022/08/29 11:16:35;;;;;;;7.70;1.90;;;;;;;22.47;62.27;99368.09;105750;1281;24823;-84
2022/08/29 11:19:22;;;;;;;9.00;2.40;;;;;;;22.57;63.10;99365.25;106028;1278;22564;-82
2022/08/29 11:22:01;;;;;;;10.20;2.50;;;;;;;22.81;62.88;99359.37;106016;1278;22560;-82
2022/08/29 11:24:38;;;;;;;8.10;2.10;;;;;;;22.91;62.46;99361.56;105352;1281;25299;-80
2022/08/29 11:27:33;;;;;;;6.60;1.90;;;;;;;23.00;62.70;99363.27;105265;1281;25255;-83
2022/08/29 11:30:11;;;;;;;7.90;2.00;;;;;;;23.04;62.22;99363.58;105531;1281;24225;-82
2022/08/29 11:32:52;;;;;;;6.90;1.80;;;;;;;23.07;62.27;99361.59;105717;1278;24212;-85
2022/08/29 11:35:42;;;;;;;9.30;2.20;;;;;;;23.16;62.28;99366.57;105862;1278;25235;-84
2022/08/29 11:38:38;;;;;;;7.10;1.90;;;;;;;23.25;62.09;99366.63;105963;1277;22601;-81
2022/08/29 11:41:11;;;;;;;7.50;2.10;;;;;;;23.19;61.72;99361.38;105908;1277;24222;-84
2022/08/29 11:43:44;;;;;;;8.30;2.10;;;;;;;23.19;62.21;99361.52;105674;1278;22552;-84
2022/08/29 11:46:31;;;;;;;9.00;2.30;;;;;;;23.29;61.83;99357.98;105766;1281;22540;-82
2022/08/29 11:49:23;;;;;;;6.00;1.90;;;;;;;23.33;62.00;99359.80;105798;1277;24303;-84
2022/08/29 11:52:14;;;;;;;8.10;2.10;;;;;;;23.39;61.64;99356.37;105761;1281;25242;-83
2022/08/29 11:54:41;;;;;;;6.80;1.80;;;;;;;23.41;61.45;99357.42;105832;1277;25242;-82
2022/08/29 11:57:09;;;;;;;7.20;1.90;;;;;;;23.39;61.10;99355.86;105891;1277;25238;-80
2022/08/29 11:59:53;;;;;;;7.50;2.20;;;;;;;23.37;60.96;99352.82;105942;1277;22685;-83
2022/08/29 12:02:35;;;;;;;7.10;2.00;;;;;;;23.31;61.17;99348.48;105760;1277;22608;-83
2022/08/29 12:05:17;;;;;;;8.70;2.40;;;;;;;23.34;61.05;99350.63;105643;1281;25351;-83
2022/08/29 12:07:53;;;;;;;7.70;2.20;;;;;;;23.27;60.57;99342.73;105794;1278;22576;-85
2022/08/29 12:10:23;;;;;;;8.30;2.20;;;;;;;23.15;61.04;99339.13;105745;1277;23973;-81
2022/08/29 12:13:05;;;;;;;8.30;2.20;;;;;;;23.23;61.32;99339.02;105658;1277;25362;-83
2022/08/29 12:15:35;;;;;;;8.80;2.50;;;;;;;23.40;61.05;99341.03;106013;1277;22623;-82
2022/08/29 12:18:13;;;;;;;8.80;2.20;;;;;;;23.40;60.45;99336.39;105958;1277;22629;-82
2022/08/29 12:20:54;;;;;;;9.80;2.40;;;;;;;23.28;60.29;99337.54;105729;1277;22663;-83
2022/08/29 12:23:34;;;;;;;9.20;2.00;;;;;;;23.25;60.56;99334.64;104738;1278;1418519;-84
2022/08/29 12:26:23;;;;;;;9.30;2.30;;;;;;;23.31;60.26;99332.68;105659;1281;22536;-83
2022/08/29 12:29:06;;;;;;;8.40;1.90;;;;;;;23.27;60.37;99332.27;105453;1278;22994;-84
2022/08/29 12:31:37;;;;;;;7.70;2.20;;;;;;;23.27;60.19;99332.06;105535;1281;22701;-84
2022/08/29 12:34:17;;;;;;;8.30;2.10;;;;;;;23.23;60.17;99334.52;105686;1278;22549;-84
2022/08/29 12:37:03;;;;;;;8.40;2.60;;;;;;;23.29;60.25;99325.34;105389;1281;22586;-83
2022/08/29 12:40:02;;;;;;;8.60;2.20;;;;;;;23.40;60.22;99315.69;105742;1277;22610;-86
2022/08/29 12:42:54;;;;;;;10.50;2.20;;;;;;;23.52;60.06;99319.38;105884;1278;22554;-82
2022/08/29 12:45:30;;;;;;;8.90;1.80;;;;;;;23.57;59.84;99324.36;105836;1277;22559;-85
2022/08/29 12:48:08;;;;;;;8.30;1.90;;;;;;;23.49;59.75;99319.05;105601;1278;22567;-82
2022/08/29 12:50:42;;;;;;;8.30;2.00;;;;;;;23.52;59.48;99322.44;105658;1280;22696;-84
2022/08/29 12:53:37;;;;;;;7.20;2.00;;;;;;;23.49;59.29;99318.15;105997;1278;22560;-82
2022/08/29 12:56:24;;;;;;;8.40;2.20;;;;;;;23.41;59.42;99317.21;105996;1277;25288;-81
2022/08/29 12:58:59;;;;;;;8.80;2.30;;;;;;;23.49;59.73;99316.34;105917;1281;22523;-82
2022/08/29 13:01:38;;;;;;;9.60;2.10;;;;;;;23.53;59.34;99315.52;105674;1278;25211;-81
2022/08/29 13:04:18;;;;;;;8.80;2.20;;;;;;;23.52;59.45;99318.36;106118;1280;25297;-82
2022/08/29 13:06:53;;;;;;;9.40;2.10;;;;;;;23.60;59.60;99317.19;105816;1280;22581;-85
2022/08/29 13:09:29;;;;;;;9.90;2.10;;;;;;;23.71;59.69;99319.05;105717;1281;22596;-82
2022/08/29 13:12:31;;;;;;;10.80;2.50;;;;;;;23.80;59.37;99319.02;105864;1277;22531;-80
2022/08/29 13:15:23;;;;;;;8.10;2.00;;;;;;;23.79;59.42;99320.77;105128;1287;24326;-85
2022/08/29 13:17:50;;;;;;;7.30;2.20;;;;;;;23.87;59.35;99314.91;105100;1286;22570;-84
2022/08/29 13:20:47;;;;;;;7.20;1.70;;;;;;;23.95;59.10;99312.23;105368;1284;22635;-82
2022/08/29 13:23:28;;;;;;;6.40;1.70;;;;;;;23.95;58.96;99312.83;105392;1285;22553;-84
2022/08/29 13:26:11;;;;;;;8.00;1.80;;;;;;;23.90;58.55;99310.30;105184;1284;22560;-85
2022/08/29 13:28:52;;;;;;;5.90;1.80;;;;;;;23.82;58.24;99303.55;105408;1284;22580;-85
2022/08/29 13:31:44;;;;;;;;;;;;;;;;;;;;;
2022/08/29 13:34:19;;;;;;;7.60;1.80;;;;;;;23.80;58.76;99296.48;105370;1284;25228;-84
2022/08/29 13:36:53;;;;;;;8.00;2.00;;;;;;;23.79;58.32;99293.05;105156;1284;25633;-82
2022/08/29 13:39:24;;;;;;;8.10;2.20;;;;;;;23.68;58.14;99290.36;105419;1284;23069;-84
2022/08/29 13:41:56;;;;;;;10.20;1.90;;;;;;;23.61;58.10;99287.42;105175;1284;25588;-87
2022/08/29 13:45:09;;;;;;;7.10;1.80;;;;;;;23.63;58.00;99285.05;105304;1285;22566;-86
2022/08/29 13:47:47;;;;;;;7.20;1.80;;;;;;;23.70;58.47;99280.15;105497;1283;22864;-86
2022/08/29 13:50:17;;;;;;;7.80;2.50;;;;;;;23.79;58.30;99272.67;105519;1278;22554;-86
2022/08/29 13:52:59;;;;;;;10.60;2.00;;;;;;;23.81;57.74;99271.18;105752;1278;22556;-87
2022/08/29 13:55:42;;;;;;;;;;;;;;;;;;;;;
2022/08/29 13:58:15;;;;;;;11.80;2.40;;;;;;;23.72;58.09;99273.71;105821;1278;24222;-84
2022/08/29 14:00:49;;;;;;;8.00;2.30;;;;;;;23.77;58.10;99273.78;105763;1278;24196;-83
2022/08/29 14:03:24;;;;;;;7.60;1.90;;;;;;;23.83;57.96;99268.62;105709;1280;25502;-82
2022/08/29 14:05:57;;;;;;;8.50;2.10;;;;;;;23.82;57.45;99269.61;105865;1278;25372;-84
2022/08/29 14:08:28;;;;;;;8.00;2.10;;;;;;;23.80;57.54;99269.11;105715;1278;22557;-82
2022/08/29 14:11:04;;;;;;;6.70;1.90;;;;;;;23.79;57.54;99270.27;105717;1278;24287;-86
2022/08/29 14:13:35;;;;;;;9.00;2.10;;;;;;;23.79;57.56;99272.96;105839;1278;22564;-82
2022/08/29 14:16:27;;;;;;;;;;;;;;;;;;;;;
2022/08/29 14:19:06;;;;;;;6.40;1.70;;;;;;;23.74;57.28;99279.46;105748;1278;25411;-82
2022/08/29 14:21:43;;;;;;;7.30;2.10;;;;;;;23.78;57.29;99277.35;105686;1278;22550;-81
2022/08/29 14:24:20;;;;;;;7.80;1.90;;;;;;;23.80;57.44;99272.32;105877;1278;24441;-81
2022/08/29 14:27:02;;;;;;;7.90;1.80;;;;;;;23.90;57.40;99271.77;105764;1278;22564;-83
2022/08/29 14:29:35;;;;;;;5.80;1.60;;;;;;;23.90;56.93;99272.14;105879;1277;25531;-83
2022/08/29 14:32:07;;;;;;;7.70;2.00;;;;;;;23.89;56.76;99269.50;105823;1277;22820;-84
2022/08/29 14:34:42;;;;;;;7.40;1.90;;;;;;;23.80;56.56;99267.23;105831;1277;22542;-84
2022/08/29 14:37:13;;;;;;;8.10;2.00;;;;;;;23.71;56.54;99273.41;105805;1277;22822;-82
2022/08/29 14:39:55;;;;;;;8.80;2.10;;;;;;;23.68;56.41;99275.52;105761;1278;25272;-81
2022/08/29 14:42:39;;;;;;;;;;;;;;;;;;;;;
2022/08/29 14:45:14;;;;;;;8.00;2.00;;;;;;;23.56;56.16;99276.36;105753;1280;25236;-83
2022/08/29 14:47:46;;;;;;;6.70;2.00;;;;;;;23.53;56.20;99281.61;105704;1282;22546;-85
2022/08/29 14:50:19;;;;;;;6.70;2.10;;;;;;;23.51;56.17;99279.77;105692;1278;22552;-85
2022/08/29 14:52:49;;;;;;;7.50;2.10;;;;;;;23.46;56.07;99277.39;105850;1278;25210;-83
2022/08/29 14:55:27;;;;;;;8.80;2.10;;;;;;;23.49;56.41;99279.74;105704;1282;25242;-82
2022/08/29 14:57:57;;;;;;;7.40;1.80;;;;;;;23.45;55.81;99273.95;105942;1276;24395;-83
2022/08/29 15:00:33;;;;;;;7.30;1.80;;;;;;;23.37;56.20;99271.91;105538;1277;22725;-84
2022/08/29 15:03:06;;;;;;;7.30;1.70;;;;;;;23.38;56.38;99274.68;105751;1277;25236;-81
2022/08/29 15:05:36;;;;;;;7.20;2.30;;;;;;;23.45;56.47;99273.36;105642;1277;25353;-84
2022/08/29 15:08:45;;;;;;;;;;;;;;;;;;;;;
2022/08/29 15:11:30;;;;;;;7.80;2.10;;;;;;;23.49;55.97;99277.98;105617;1278;22562;-82
2022/08/29 15:14:00;;;;;;;5.90;1.80;;;;;;;23.44;55.66;99281.23;105692;1277;22703;-82
2022/08/29 15:16:28;;;;;;;9.70;2.20;;;;;;;23.35;55.85;99283.23;105739;1277;22628;-84
2022/08/29 15:18:55;;;;;;;8.00;1.90;;;;;;;23.33;55.84;99280.77;105761;1278;23067;-87
2022/08/29 15:21:26;;;;;;;6.70;1.90;;;;;;;23.20;55.73;99282.58;105618;1277;25349;-83
2022/08/29 15:23:53;;;;;;;6.80;1.90;;;;;;;23.09;55.67;99282.70;105693;1277;22557;-86
2022/08/29 15:26:23;;;;;;;6.60;1.90;;;;;;;23.01;56.06;99285.21;105857;1277;25314;-82
2022/08/29 15:28:53;;;;;;;9.10;2.10;;;;;;;22.98;56.04;99278.45;105775;1277;22580;-82
2022/08/29 15:31:23;;;;;;;8.40;1.90;;;;;;;22.96;55.97;99275.88;105747;1277;26466;-83
2022/08/29 15:33:50;;;;;;;7.40;1.90;;;;;;;22.85;55.77;99275.48;105716;1277;25291;-82
2022/08/29 15:36:29;;;;;;;7.10;1.90;;;;;;;22.74;56.01;99272.50;105686;1276;22744;-85
2022/08/29 15:39:03;;;;;;;8.40;2.30;;;;;;;22.63;55.75;99273.11;105570;1278;24256;-83
2022/08/29 15:41:42;;;;;;;7.50;1.70;;;;;;;22.55;56.24;99266.64;105671;1277;25248;-86
2022/08/29 15:44:10;;;;;;;7.20;1.80;;;;;;;22.52;55.87;99265.30;105748;1278;25448;-82
2022/08/29 15:46:37;;;;;;;7.70;2.00;;;;;;;22.44;55.53;99262.84;105656;1277;25321;-81
2022/08/29 15:49:05;;;;;;;7.10;1.90;;;;;;;22.38;55.76;99260.77;105688;1278;25311;-83
2022/08/29 15:51:34;;;;;;;9.10;2.10;;;;;;;22.42;55.77;99262.05;105911;1277;22572;-81
2022/08/29 15:54:01;;;;;;;6.30;1.50;;;;;;;22.49;55.67;99259.38;105786;1277;22554;-83
2022/08/29 15:56:33;;;;;;;7.30;1.80;;;;;;;22.63;55.55;99255.07;105841;1278;22561;-84
2022/08/29 15:59:07;;;;;;;6.00;1.70;;;;;;;22.88;55.42;99252.45;105816;1278;26455;-83